Terminal Aerodrome Forecast
Issued by NWS

Home | Current Version | Previous Version | Text Only | Print | Product List | Glossary On
Versions: 1 2 3 4 5 6 7 8 9 10 11 12 13 14 15 16 17 18 19 20 21 22
000
FTUS41 KILN 290300 AAA
TAFLUK
TAF AMD
KLUK 290309Z 2903/2924 VRB03KT P6SM BKN028
     FM290600 VRB03KT P6SM SCT030
     FM291500 03007KT P6SM SCT030 BKN250
     FM292300 03004KT P6SM SCT030=

USA.gov is the U.S. government's official web portal to all federal, state and local government web resources and services.